Weather observations for the past three days for
Camden / Harrell Field
Metric (Imperial)
Date Time (cdt) Wind (kph) Vis. (km) Weather Sky Cond. Temperature (ºC) Relative Humidity Wind Chill (°C) Heat Index (°C) Pressure Precipitation (cm)
Air Dwpt 6 hour altimeter (cm) sea level (mb) 1 hr 3 hr 6 hr
Max. Min.
07 01:55 Vrbl 6 16.09 A Few Clouds FEW046 11.7 10.4 92% 76.28 0.0
07 01:35 N 9 16.09 Partly Cloudy FEW046 SCT060 11.7 10.3 91% 76.28 0.0
07 01:15 N 9 16.09 A Few Clouds FEW045 11.5 10.1 91% 76.28 0.0
07 00:55 NW 9 16.09 Mostly Cloudy BKN044 11.8 10 12.2 11.8 89% 76.28 0.0 0.03
07 00:35 N 13 16.09 Overcast OVC043 11.9 9.9 88% 76.3 0.0
07 00:15 N 9 16.09 Mostly Cloudy BKN042 11.9 9.8 87% 76.28 0.0
06 23:55 N 7 16.09 Overcast OVC040 12 9.6 85% 76.25 0.0
06 23:35 N 7 16.09 Mostly Cloudy BKN038 12 9.7 86% 76.25 0.0
06 23:15 N 15 16.09 Mostly Cloudy SCT038 BKN055 12 9.5 85% 76.23 0.0
06 22:55 NE 9 16.09 Fair CLR 12 9.4 84% 76.25 0.0
06 22:35 N 9 16.09 A Few Clouds FEW060 12.1 9.3 83% 76.23 0.0
06 22:15 N 11 16.09 Mostly Cloudy BKN060 12.2 9.4 83% 76.23 0.0
06 21:55 NE 11 16.09 Partly Cloudy SCT055 12.2 9.3 83% 76.2 0.0 0.03
06 21:35 NE 9 16.09 Partly Cloudy SCT055 12.2 9.5 84% 76.2 0.0
06 21:15 N 7 16.09 Mostly Cloudy SCT050 BKN060 12.2 9.7 85% 76.17 0.0
06 20:55 N 11 16.09 Thunderstorm in Vicinity BKN050 12.1 10 87% 76.15 0.0
06 20:35 N 11 16.09 Thunderstorm in Vicinity FEW049 12.1 9.7 85% 76.15 0.0
06 20:15 N 7 16.09 A Few Clouds FEW015 12.1 9.8 86% 76.1 0.0
06 19:55 NE 11 16.09 Mostly Cloudy BKN015 12 9.8 87% 76.05 0.0 0.03
06 19:35 NE 13 16.09 Mostly Cloudy BKN014 12.1 9.7 85% 76.05 0.0 0.03
06 19:15 NE 17 G 28 16.09 Overcast OVC012 12 9.7 86% 76.07 0.0
06 18:55 N 15 16.09 Overcast OVC012 12.4 10.1 13.6 12.3 86% 76.1 0.0
06 18:35 N 13 16.09 Overcast OVC010 12.4 10.3 87% 76.1 0.0
06 17:55 N 20 16.09 Overcast OVC011 12.8 11 89% 76.07 0.0
06 17:35 N 15 16.09 Overcast OVC012 13.2 11.1 87% 76 0.0
06 17:15 NE 9 16.09 Overcast OVC014 13.4 11 86% 76.02 0.0
06 16:55 NE 13 16.09 Overcast OVC014 13.4 10.9 85% 76.05 0.0
06 16:35 NE 6 16.09 Overcast OVC013 13.5 11 85% 76.02 0.0
06 16:15 NE 13 16.09 Overcast OVC013 13.4 10.8 84% 75.97 0.0
06 15:55 NE 13 16.09 Overcast OVC013 13.4 10.8 84% 75.95 0.0
06 15:35 E 13 16.09 Overcast OVC012 13.1 10.6 85% 76 0.0
06 15:15 NE 19 16.09 Overcast OVC011 12.9 10.8 87% 75.87 0.0
06 14:55 NE 11 16.09 Overcast OVC010 12.9 11 88% 76 0.0
06 14:35 Vrbl 11 16.09 Overcast OVC010 12.6 10.8 89% 76.07 0.0
06 14:15 N 13 16.09 Overcast OVC010 12.8 10.9 88% 76.07 0.0
06 13:55 NE 15 16.09 Overcast OVC009 12.7 10.8 88% 76.15 0.0
06 13:35 N 20 16.09 Overcast OVC009 12.6 10.7 88% 76.17 0.0
06 13:15 N 19 16.09 Overcast OVC009 12.9 11.1 89% 76.15 0.0
06 12:55 N 15 16.09 Overcast OVC008 12.7 11.1 14.8 12.2 90% 76.17 0.0
06 12:35 N 15 16.09 Overcast OVC009 12.4 10.9 91% 76.17 0.0
06 12:15 N 11 16.09 Overcast OVC008 12.6 11.1 91% 76.17 0.0
06 11:55 N 15 16.09 Overcast OVC008 12.4 11.1 92% 76.12 0.0
06 11:35 NE 15 16.09 Overcast OVC008 12.3 11 92% 76.1 0.0
06 11:15 NE 13 12.87 Overcast OVC007 12.2 11.2 94% 76.12 0.0
06 10:55 N 17 9.66 Fog/Mist OVC007 12.3 11.3 94% 76.1 0.0
06 10:35 N 20 4.83 Light Rain Fog/Mist OVC005 12.3 11.6 96% 76.07 0.0
06 10:15 NE 11 6.44 Light Rain Fog/Mist OVC006 12.2 11.5 96% 76.07 0.0
06 09:55 N 11 8.05 Light Rain Fog/Mist OVC007 12.4 11.5 94% 76.05 0.0
06 09:35 N 15 9.66 Light Rain Fog/Mist OVC008 12.5 11.5 94% 76.02 0.0
06 09:15 N 17 14.48 Light Rain BKN010 OVC017 12.7 11.5 92% 76 0.0
06 08:55 N 17 14.48 Light Rain OVC009 13 11.9 93% 76 0.0
06 08:35 N 13 12.87 Light Rain OVC009 13.1 12 93% 75.97 0.0
06 08:15 N 19 16.09 Overcast OVC010 13.1 11.6 91% 75.97 0.0
06 07:55 N 15 16.09 Overcast OVC008 13.6 12.4 93% 75.9 0.0
06 07:35 N 11 16.09 Overcast OVC007 13.9 13 94% 75.87 0.0
06 07:15 N 17 12.87 Light Rain OVC008 14.4 13.5 94% 75.84 0.0
06 06:55 N 17 12.87 Light Rain BKN008 OVC017 14.9 14.1 24.6 14.9 95% 75.79 0.0
06 06:35 NE 13 16.09 Light Rain SCT008 OVC015 15.3 14.3 94% 75.77 0.0
06 06:15 N 20 G 30 16.09 Overcast OVC013 16.2 15 93% 75.77 0.0
06 05:55 N 28 G 37 6.44 Light Rain Fog/Mist BKN013 BKN019 17.7 16.4 92% 75.69 0.0
06 05:35 N 9 9.66 Light Rain Fog/Mist SCT018 23.8 21.9 89% 75.67 0.0
06 05:15 SW 6 4.02 Fog/Mist CLR 23.9 21.8 88% 24 75.62 0.0
06 04:55 S 7 4.83 Fog/Mist CLR 24 21.9 88% 24 75.62 0.0
06 04:35 SW 7 16.09 A Few Clouds FEW019 24.2 21.8 87% 24 75.59 0.0
06 04:15 SW 13 16.09 A Few Clouds FEW019 24.5 21.8 85% 25 75.62 0.0
06 03:55 SW 11 16.09 Partly Cloudy SCT019 24.3 21.8 86% 24 75.57 0.0
06 03:35 SW 15 16.09 Partly Cloudy SCT018 24.2 21.7 86% 24 75.54 0.0
06 03:15 SW 13 16.09 A Few Clouds FEW017 24 21.8 88% 24 75.49 0.0
06 02:55 S 17 16.09 A Few Clouds FEW018 23.8 21.8 89% 75.46 0.0
06 02:35 S 15 14.48 Fair CLR 23.7 21.8 89% 75.51 0.0
06 02:15 S 15 16.09 Fair CLR 23.5 21.8 90% 75.51 0.0
06 01:55 S 13 16.09 Fair CLR 23.5 21.8 90% 75.51 0.0
06 01:35 S 17 16.09 Fair CLR 23.5 21.8 90% 75.54 0.0
06 00:55 SW 15 16.09 A Few Clouds FEW220 23.5 21.8 26.6 23.5 90% 75.57 0.0
06 00:35 S 15 16.09 A Few Clouds FEW220 23.6 21.8 90% 75.51 0.0
06 00:15 S 15 16.09 Fair CLR 23.5 21.8 90% 75.54 0.0
05 23:55 S 15 16.09 Fair CLR 23.5 21.8 90% 75.54 0.0
05 23:35 S 15 16.09 Fair CLR 23.6 21.7 89% 75.54 0.0
05 23:15 S 13 16.09 A Few Clouds FEW210 23.7 21.7 89% 75.54 0.0
05 22:55 S 15 16.09 Fair CLR 23.9 21.7 88% 24 75.51 0.0
05 22:35 S 17 16.09 Fair CLR 23.9 21.7 88% 24 75.49 0.0
05 22:15 S 11 16.09 Fair CLR 23.9 21.7 88% 24 75.46 0.0
05 21:55 S 15 16.09 Fair CLR 24.1 21.6 86% 24 75.49 0.0
05 21:35 S 11 16.09 Fair CLR 24 21.7 87% 24 75.46 0.0
05 21:15 S 11 16.09 Fair CLR 24 21.6 87% 24 75.46 0.0
05 20:55 S 7 16.09 Fair CLR 24 21.5 86% 24 75.44 0.0
05 20:35 S 7 16.09 Fair CLR 24.7 21.6 83% 25 75.44 0.0
05 20:15 S 11 16.09 Fair CLR 25 21.6 81% 26 75.41 0.0
05 19:55 S 13 16.09 Fair CLR 25.3 21.6 80% 26 75.41 0.0
05 19:35 S 11 16.09 Fair CLR 25.6 21.6 79% 27 75.39 0.0
05 19:15 S 9 16.09 Fair CLR 26 21.4 76% 28 75.39 0.0
05 18:55 S 17 16.09 Fair CLR 26.7 21.3 27.8 21.1 72% 29 75.36 0.0
05 18:35 S 9 16.09 Fair CLR 27.6 21.9 71% 30 75.36 0.0
05 18:15 S 17 16.09 Fair CLR 27.7 21.7 70% 30 75.39 0.0
05 17:55 S 15 14.48 Fair CLR 27 21.2 71% 29 75.39 0.0
05 17:35 S 19 14.48 Fair CLR 27.1 21.3 71% 29 75.39 0.0
05 17:15 S 13 14.48 Fair CLR 27.1 20.8 69% 29 75.39 0.0
05 16:55 S 17 G 26 16.09 A Few Clouds FEW340 27.8 21.6 69% 30 75.39 0.0
05 16:35 S 15 16.09 A Few Clouds FEW340 27.5 21.7 71% 30 75.39 0.0
05 16:15 S 17 16.09 A Few Clouds FEW300 27.8 21.7 69% 30 75.41 0.0
05 15:55 S 9 16.09 Partly Cloudy FEW280 SCT360 26.3 21.4 75% 28 75.44 0.0
05 15:35 S 9 14.48 A Few Clouds FEW300 26.7 21.4 73% 29 75.44 0.0
05 15:15 S 9 16.09 A Few Clouds FEW330 25.7 21 75% 27 75.44 0.0
05 14:55 S 15 16.09 A Few Clouds FEW310 25 20.7 77% 26 75.46 0.0
05 14:35 SE 13 16.09 Partly Cloudy FEW021 SCT310 SCT360 25.1 21 78% 26 75.46 0.0
05 14:15 SE 7 16.09 A Few Clouds FEW021 23.1 20.5 85% 75.54 0.0
05 13:55 SE 7 16.09 A Few Clouds FEW023 22.6 20.1 86% 75.54 0.0
05 13:35 Calm 16.09 A Few Clouds FEW360 22.3 20.1 87% 75.54 0.0
05 13:15 SE 7 16.09 A Few Clouds FEW014 21.5 19.9 91% 75.54 0.0
04 17:55 S 17 16.09 Fair CLR 26 12 42% 26 75.72 0.0
04 17:35 S 15 G 33 16.09 Fair CLR 26 12 42% 26 75.74 0.0
04 17:15 S 22 14.48 Fair CLR 27 12 39% 27 75.74 0.0
04 16:55 S 17 G 26 12.87 Fair CLR 27 13 42% 27 75.74 0.0
04 16:35 S 20 16.09 Fair CLR 27 12 39% 27 75.77 0.0
04 16:15 SW 17 G 30 16.09 Fair CLR 27 12 39% 27 75.79 0.0
04 15:55 S 22 16.09 Fair CLR 27 12 39% 27 75.82 0.0
04 15:35 S 22 11.27 Fair CLR 27 12 39% 27 75.84 0.0
04 15:15 S 22 G 31 14.48 Fair CLR 27 12 39% 27 75.87 0.0
04 14:55 S 22 16.09 Fair CLR 27 12 39% 27 75.9 0.0
04 14:35 S 24 G 33 9.66 Fair with Haze CLR 27 12 39% 27 75.92 0.0
04 14:15 S 19 G 30 8.05 Fair with Haze CLR 27 12 39% 27 75.95 0.0
04 13:55 SW 19 G 31 16.09 Fair CLR 27 12 39% 27 75.97 0.0
04 13:35 S 17 G 37 16.09 Fair CLR 27 12 39% 27 76 0.0
04 13:15 S 15 G 33 9.66 Fair with Haze CLR 26 12 42% 26 76.02 0.0
04 12:55 SW 19 G 33 14.48 Fair CLR 26 11 39% 26 76.02 0.0
04 12:35 S 26 16.09 Fair CLR 26 11 39% 26 76.05 0.0
04 12:15 SW 24 G 35 11.27 Fair CLR 25 12 44% 26 76.05 0.0
04 11:55 S 20 G 31 16.09 Fair CLR 25 12 44% 26 76.07 0.0
04 11:35 SW 15 G 30 16.09 Fair CLR 24 12 47% 25 76.1 0.0
04 11:15 S 20 9.66 Fair with Haze CLR 24 12 47% 25 76.12 0.0
04 10:55 S 20 16.09 Fair CLR 23 13 53% 76.12 0.0
04 10:35 SW 20 G 30 16.09 Fair CLR 23 12 50% 76.15 0.0
04 10:15 SW 15 16.09 Fair CLR 22 13 57% 76.15 0.0
04 09:55 SW 19 14.48 Fair CLR 21 13 60% 76.15 0.0
04 09:35 SW 11 G 22 16.09 Fair CLR 21 13 60% 76.17 0.0
04 09:15 SW 15 G 26 11.27 Fair CLR 20 12 60% 76.15 0.0
04 08:55 SW 15 16.09 Fair CLR 19 13 68% 76.15 0.0
04 08:35 SW 15 16.09 Fair CLR 18 13 73% 76.15 0.0
04 08:15 SW 13 G 22 14.48 Fair CLR 18 13 73% 76.15 0.0
04 07:55 SW 13 16.09 Fair CLR 17 13 77% 76.15 0.0
04 07:35 S 7 16.09 Fair CLR 16 13 83% 76.15 0.0
04 07:15 S 7 9.66 Fair with Haze CLR 15 12 82% 76.12 0.0
04 06:55 S 7 16.09 Fair CLR 14 12 88% 76.1 0.0
04 06:35 S 7 16.09 Fair CLR 13 11 88% 76.1 0.0
04 06:15 S 6 16.09 Fair CLR 13 11 88% 76.07 0.0
04 05:55 S 7 16.09 Fair CLR 14 11 82% 76.07 0.0
04 05:35 S 6 14.48 Fair CLR 14 11 82% 76.1 0.0
04 05:15 S 7 14.48 Fair CLR 14 11 82% 76.1 0.0
04 04:55 Calm 12.87 Fair CLR 14 11 82% 76.1 0.0
04 04:35 Calm 14.48 Fair CLR 13 11 88% 76.1 0.0
04 04:15 Calm 16.09 Fair CLR 13 11 88% 76.1 0.0
04 03:55 Calm 16.09 Fair CLR 14 11 82% 76.1 0.0
04 03:35 Calm 14.48 Fair CLR 14 12 88% 76.1 0.0
04 03:15 S 6 16.09 Fair CLR 14 12 88% 76.1 0.0
04 02:55 S 6 16.09 Fair CLR 15 11 77% 76.12 0.0
04 02:35 SW 7 16.09 Fair CLR 16 11 72% 76.15 0.0
04 02:15 Calm 16.09 Fair CLR 16 12 77% 76.15 0.0
Date Time (cdt) Wind (kph) Vis. (km) Weather Sky Cond. Air Dwpt Max. Min. Relative Humidity Wind Chill (°C) Heat Index (°C) altimeter (cm) sea level (mb) 1 hr 3 hr 6 hr
6 hour
Temperature (ºC) Pressure Precipitation (cm)